sensor_id;sensor_type;location;lat;lon;timestamp;temperature;humidity
19862;DHT22;10093;48.148;8.542;2022-10-14T00:01:26;10.90;99.90
19862;DHT22;10093;48.148;8.542;2022-10-14T00:03:52;10.80;99.90
19862;DHT22;10093;48.148;8.542;2022-10-14T00:06:24;10.80;99.90
19862;DHT22;10093;48.148;8.542;2022-10-14T00:08:51;10.70;99.90
19862;DHT22;10093;48.148;8.542;2022-10-14T00:11:28;10.80;99.90
19862;DHT22;10093;48.148;8.542;2022-10-14T00:13:55;10.80;99.90
19862;DHT22;10093;48.148;8.542;2022-10-14T00:16:25;10.70;99.90
19862;DHT22;10093;48.148;8.542;2022-10-14T00:18:51;10.70;99.90
19862;DHT22;10093;48.148;8.542;2022-10-14T00:21:17;10.60;99.90
19862;DHT22;10093;48.148;8.542;2022-10-14T00:23:43;10.70;99.90
19862;DHT22;10093;48.148;8.542;2022-10-14T00:26:20;10.60;99.90
19862;DHT22;10093;48.148;8.542;2022-10-14T00:28:46;10.60;99.90
19862;DHT22;10093;48.148;8.542;2022-10-14T00:31:13;10.60;99.90
19862;DHT22;10093;48.148;8.542;2022-10-14T00:33:38;10.70;99.90
19862;DHT22;10093;48.148;8.542;2022-10-14T00:36:06;10.70;99.90
19862;DHT22;10093;48.148;8.542;2022-10-14T00:38:31;10.70;99.90
19862;DHT22;10093;48.148;8.542;2022-10-14T00:40:57;10.70;99.90
19862;DHT22;10093;48.148;8.542;2022-10-14T00:43:25;10.70;99.90
19862;DHT22;10093;48.148;8.542;2022-10-14T00:45:50;10.70;99.90
19862;DHT22;10093;48.148;8.542;2022-10-14T00:48:18;10.60;99.90
19862;DHT22;10093;48.148;8.542;2022-10-14T00:50:47;10.70;99.90
19862;DHT22;10093;48.148;8.542;2022-10-14T00:53:14;10.70;99.90
19862;DHT22;10093;48.148;8.542;2022-10-14T00:55:41;10.70;99.90
19862;DHT22;10093;48.148;8.542;2022-10-14T00:58:07;10.70;99.90
19862;DHT22;10093;48.148;8.542;2022-10-14T01:00:34;10.80;99.90
19862;DHT22;10093;48.148;8.542;2022-10-14T01:03:00;10.80;99.90
19862;DHT22;10093;48.148;8.542;2022-10-14T01:05:32;10.80;99.90
19862;DHT22;10093;48.148;8.542;2022-10-14T01:08:30;11.00;99.90
19862;DHT22;10093;48.148;8.542;2022-10-14T01:11:06;11.10;99.90
19862;DHT22;10093;48.148;8.542;2022-10-14T01:13:37;11.20;99.90
19862;DHT22;10093;48.148;8.542;2022-10-14T01:16:13;11.10;99.90
19862;DHT22;10093;48.148;8.542;2022-10-14T01:18:51;11.10;99.90
19862;DHT22;10093;48.148;8.542;2022-10-14T01:29:56;11.10;99.90
19862;DHT22;10093;48.148;8.542;2022-10-14T01:32:51;11.00;99.90
19862;DHT22;10093;48.148;8.542;2022-10-14T01:38:00;11.10;99.90
19862;DHT22;10093;48.148;8.542;2022-10-14T01:40:42;11.10;99.90
19862;DHT22;10093;48.148;8.542;2022-10-14T01:43:11;11.00;99.90
19862;DHT22;10093;48.148;8.542;2022-10-14T01:45:40;10.90;99.90
19862;DHT22;10093;48.148;8.542;2022-10-14T01:48:07;10.80;99.90
19862;DHT22;10093;48.148;8.542;2022-10-14T01:50:35;11.20;99.90
19862;DHT22;10093;48.148;8.542;2022-10-14T01:53:06;11.40;99.90
19862;DHT22;10093;48.148;8.542;2022-10-14T01:55:40;11.20;99.90
19862;DHT22;10093;48.148;8.542;2022-10-14T01:58:08;11.30;99.90
19862;DHT22;10093;48.148;8.542;2022-10-14T02:00:34;11.30;99.90
19862;DHT22;10093;48.148;8.542;2022-10-14T02:03:00;11.20;99.90
19862;DHT22;10093;48.148;8.542;2022-10-14T02:05:34;11.30;99.90
19862;DHT22;10093;48.148;8.542;2022-10-14T02:08:11;11.20;99.90
19862;DHT22;10093;48.148;8.542;2022-10-14T02:10:59;11.20;99.90
19862;DHT22;10093;48.148;8.542;2022-10-14T02:13:54;11.30;99.90
19862;DHT22;10093;48.148;8.542;2022-10-14T02:16:30;11.40;99.90
19862;DHT22;10093;48.148;8.542;2022-10-14T02:19:23;11.50;99.90
19862;DHT22;10093;48.148;8.542;2022-10-14T02:24:51;11.40;99.90
19862;DHT22;10093;48.148;8.542;2022-10-14T02:27:18;11.30;99.90
19862;DHT22;10093;48.148;8.542;2022-10-14T02:29:47;11.40;99.90
19862;DHT22;10093;48.148;8.542;2022-10-14T02:32:16;11.10;99.90
19862;DHT22;10093;48.148;8.542;2022-10-14T02:34:45;11.10;99.90
19862;DHT22;10093;48.148;8.542;2022-10-14T02:37:12;10.90;99.90
19862;DHT22;10093;48.148;8.542;2022-10-14T02:39:42;10.90;99.90
19862;DHT22;10093;48.148;8.542;2022-10-14T02:42:08;10.90;99.90
19862;DHT22;10093;48.148;8.542;2022-10-14T02:44:34;11.00;99.90
19862;DHT22;10093;48.148;8.542;2022-10-14T02:46:59;11.10;99.90
19862;DHT22;10093;48.148;8.542;2022-10-14T02:49:25;10.90;99.90
19862;DHT22;10093;48.148;8.542;2022-10-14T02:51:50;10.80;99.90
19862;DHT22;10093;48.148;8.542;2022-10-14T02:54:16;10.70;99.90
19862;DHT22;10093;48.148;8.542;2022-10-14T02:56:41;10.90;99.90
19862;DHT22;10093;48.148;8.542;2022-10-14T02:59:07;10.90;99.90
19862;DHT22;10093;48.148;8.542;2022-10-14T03:01:33;10.80;99.90
19862;DHT22;10093;48.148;8.542;2022-10-14T03:03:58;10.90;99.90
19862;DHT22;10093;48.148;8.542;2022-10-14T03:06:24;10.80;99.90
19862;DHT22;10093;48.148;8.542;2022-10-14T03:08:50;10.60;99.90
19862;DHT22;10093;48.148;8.542;2022-10-14T03:11:15;10.50;99.90
19862;DHT22;10093;48.148;8.542;2022-10-14T03:13:41;10.30;99.90
19862;DHT22;10093;48.148;8.542;2022-10-14T03:16:06;10.30;99.90
19862;DHT22;10093;48.148;8.542;2022-10-14T03:18:33;10.30;99.90
19862;DHT22;10093;48.148;8.542;2022-10-14T03:20:58;10.40;99.90
19862;DHT22;10093;48.148;8.542;2022-10-14T03:23:24;10.30;99.90
19862;DHT22;10093;48.148;8.542;2022-10-14T03:25:49;10.30;99.90
19862;DHT22;10093;48.148;8.542;2022-10-14T03:28:15;10.40;99.90
19862;DHT22;10093;48.148;8.542;2022-10-14T03:30:41;10.50;99.90
19862;DHT22;10093;48.148;8.542;2022-10-14T03:33:06;10.50;99.90
19862;DHT22;10093;48.148;8.542;2022-10-14T03:35:32;10.40;99.90
19862;DHT22;10093;48.148;8.542;2022-10-14T03:37:57;10.30;99.90
19862;DHT22;10093;48.148;8.542;2022-10-14T03:40:26;10.30;99.90
19862;DHT22;10093;48.148;8.542;2022-10-14T03:42:52;10.50;99.90
19862;DHT22;10093;48.148;8.542;2022-10-14T03:45:18;10.80;99.90
19862;DHT22;10093;48.148;8.542;2022-10-14T03:47:43;10.80;99.90
19862;DHT22;10093;48.148;8.542;2022-10-14T03:50:09;11.00;99.90
19862;DHT22;10093;48.148;8.542;2022-10-14T03:52:34;11.10;99.90
19862;DHT22;10093;48.148;8.542;2022-10-14T03:55:00;11.20;99.90
19862;DHT22;10093;48.148;8.542;2022-10-14T03:57:26;11.00;99.90
19862;DHT22;10093;48.148;8.542;2022-10-14T03:59:51;11.00;99.90
19862;DHT22;10093;48.148;8.542;2022-10-14T04:02:17;10.90;99.90
19862;DHT22;10093;48.148;8.542;2022-10-14T04:04:42;11.00;99.90
19862;DHT22;10093;48.148;8.542;2022-10-14T04:07:08;11.00;99.90
19862;DHT22;10093;48.148;8.542;2022-10-14T04:09:34;11.10;99.90
19862;DHT22;10093;48.148;8.542;2022-10-14T04:11:59;11.00;99.90
19862;DHT22;10093;48.148;8.542;2022-10-14T04:14:25;11.10;99.90
19862;DHT22;10093;48.148;8.542;2022-10-14T04:16:53;11.10;99.90
19862;DHT22;10093;48.148;8.542;2022-10-14T04:19:19;11.20;99.90
19862;DHT22;10093;48.148;8.542;2022-10-14T04:21:45;11.20;99.90
19862;DHT22;10093;48.148;8.542;2022-10-14T04:24:10;11.20;99.90
19862;DHT22;10093;48.148;8.542;2022-10-14T04:26:38;11.10;99.90
19862;DHT22;10093;48.148;8.542;2022-10-14T04:29:04;11.10;99.90
19862;DHT22;10093;48.148;8.542;2022-10-14T04:31:29;11.30;99.90
19862;DHT22;10093;48.148;8.542;2022-10-14T04:33:55;11.30;99.90
19862;DHT22;10093;48.148;8.542;2022-10-14T04:36:21;11.30;99.90
19862;DHT22;10093;48.148;8.542;2022-10-14T04:38:46;11.20;99.90
19862;DHT22;10093;48.148;8.542;2022-10-14T04:41:12;11.10;99.90
19862;DHT22;10093;48.148;8.542;2022-10-14T04:43:40;11.10;99.90
19862;DHT22;10093;48.148;8.542;2022-10-14T04:46:06;11.10;99.90
19862;DHT22;10093;48.148;8.542;2022-10-14T04:48:53;11.20;99.90
19862;DHT22;10093;48.148;8.542;2022-10-14T04:51:18;11.10;99.90
19862;DHT22;10093;48.148;8.542;2022-10-14T04:53:44;11.00;99.90
19862;DHT22;10093;48.148;8.542;2022-10-14T04:56:10;10.90;99.90
19862;DHT22;10093;48.148;8.542;2022-10-14T04:58:35;11.10;99.90
19862;DHT22;10093;48.148;8.542;2022-10-14T05:01:01;11.10;99.90
19862;DHT22;10093;48.148;8.542;2022-10-14T05:03:26;11.10;99.90
19862;DHT22;10093;48.148;8.542;2022-10-14T05:05:52;11.30;99.90
19862;DHT22;10093;48.148;8.542;2022-10-14T05:08:17;11.20;99.90
19862;DHT22;10093;48.148;8.542;2022-10-14T05:10:43;11.20;99.90
19862;DHT22;10093;48.148;8.542;2022-10-14T05:13:09;11.30;99.90
19862;DHT22;10093;48.148;8.542;2022-10-14T05:15:34;11.40;99.90
19862;DHT22;10093;48.148;8.542;2022-10-14T05:18:00;11.40;99.90
19862;DHT22;10093;48.148;8.542;2022-10-14T05:20:25;11.50;99.90
19862;DHT22;10093;48.148;8.542;2022-10-14T05:22:51;11.50;99.90
19862;DHT22;10093;48.148;8.542;2022-10-14T05:25:17;11.50;99.90
19862;DHT22;10093;48.148;8.542;2022-10-14T05:27:43;11.50;99.90
19862;DHT22;10093;48.148;8.542;2022-10-14T05:30:09;11.40;99.90
19862;DHT22;10093;48.148;8.542;2022-10-14T05:32:35;11.40;99.90
19862;DHT22;10093;48.148;8.542;2022-10-14T05:35:01;11.40;99.90
19862;DHT22;10093;48.148;8.542;2022-10-14T05:37:27;11.50;99.90
19862;DHT22;10093;48.148;8.542;2022-10-14T05:39:53;11.50;99.90
19862;DHT22;10093;48.148;8.542;2022-10-14T05:42:19;11.50;99.90
19862;DHT22;10093;48.148;8.542;2022-10-14T05:44:45;11.50;99.90
19862;DHT22;10093;48.148;8.542;2022-10-14T05:47:10;11.50;99.90
19862;DHT22;10093;48.148;8.542;2022-10-14T05:49:36;11.60;99.90
19862;DHT22;10093;48.148;8.542;2022-10-14T05:52:02;11.60;99.90
19862;DHT22;10093;48.148;8.542;2022-10-14T05:54:27;11.60;99.90
19862;DHT22;10093;48.148;8.542;2022-10-14T05:56:53;11.60;99.90
19862;DHT22;10093;48.148;8.542;2022-10-14T05:59:19;11.70;99.90
19862;DHT22;10093;48.148;8.542;2022-10-14T06:01:44;11.80;99.90
19862;DHT22;10093;48.148;8.542;2022-10-14T06:04:18;11.80;99.90
19862;DHT22;10093;48.148;8.542;2022-10-14T06:06:44;11.90;99.90
19862;DHT22;10093;48.148;8.542;2022-10-14T06:09:09;11.90;99.90
19862;DHT22;10093;48.148;8.542;2022-10-14T06:11:35;11.90;99.90
19862;DHT22;10093;48.148;8.542;2022-10-14T06:14:01;11.90;99.90
19862;DHT22;10093;48.148;8.542;2022-10-14T06:16:26;11.90;99.90
19862;DHT22;10093;48.148;8.542;2022-10-14T06:18:52;11.80;99.90
19862;DHT22;10093;48.148;8.542;2022-10-14T06:21:17;11.70;99.90
19862;DHT22;10093;48.148;8.542;2022-10-14T06:23:43;11.60;99.90
19862;DHT22;10093;48.148;8.542;2022-10-14T06:26:09;11.70;99.90
19862;DHT22;10093;48.148;8.542;2022-10-14T06:28:35;11.70;99.90
19862;DHT22;10093;48.148;8.542;2022-10-14T06:31:01;11.90;99.90
19862;DHT22;10093;48.148;8.542;2022-10-14T06:33:28;12.00;99.90
19862;DHT22;10093;48.148;8.542;2022-10-14T06:35:54;12.00;99.90
19862;DHT22;10093;48.148;8.542;2022-10-14T06:38:20;12.00;99.90
19862;DHT22;10093;48.148;8.542;2022-10-14T06:40:45;12.10;99.90
19862;DHT22;10093;48.148;8.542;2022-10-14T06:43:14;12.10;99.90
19862;DHT22;10093;48.148;8.542;2022-10-14T06:45:39;12.10;99.90
19862;DHT22;10093;48.148;8.542;2022-10-14T06:48:05;12.20;99.90
19862;DHT22;10093;48.148;8.542;2022-10-14T06:50:31;12.20;99.90
19862;DHT22;10093;48.148;8.542;2022-10-14T06:52:56;12.40;99.90
19862;DHT22;10093;48.148;8.542;2022-10-14T06:55:22;12.60;99.90
19862;DHT22;10093;48.148;8.542;2022-10-14T06:57:48;12.60;99.90
19862;DHT22;10093;48.148;8.542;2022-10-14T07:00:13;12.70;99.90
19862;DHT22;10093;48.148;8.542;2022-10-14T07:02:39;12.80;99.90
19862;DHT22;10093;48.148;8.542;2022-10-14T07:05:05;12.90;99.90
19862;DHT22;10093;48.148;8.542;2022-10-14T07:07:31;13.00;99.90
19862;DHT22;10093;48.148;8.542;2022-10-14T07:09:57;13.00;99.90
19862;DHT22;10093;48.148;8.542;2022-10-14T07:12:24;13.10;99.90
19862;DHT22;10093;48.148;8.542;2022-10-14T07:14:49;13.10;99.90
19862;DHT22;10093;48.148;8.542;2022-10-14T07:17:15;13.20;99.90
19862;DHT22;10093;48.148;8.542;2022-10-14T07:19:40;13.30;99.90
19862;DHT22;10093;48.148;8.542;2022-10-14T07:22:06;13.10;99.90
19862;DHT22;10093;48.148;8.542;2022-10-14T07:24:32;13.30;99.90
19862;DHT22;10093;48.148;8.542;2022-10-14T07:26:57;13.40;99.90
19862;DHT22;10093;48.148;8.542;2022-10-14T07:29:23;13.40;99.90
19862;DHT22;10093;48.148;8.542;2022-10-14T07:31:49;13.40;99.90
19862;DHT22;10093;48.148;8.542;2022-10-14T07:34:15;13.60;99.90
19862;DHT22;10093;48.148;8.542;2022-10-14T07:36:40;13.80;99.90
19862;DHT22;10093;48.148;8.542;2022-10-14T07:39:06;13.90;99.90
19862;DHT22;10093;48.148;8.542;2022-10-14T07:41:32;13.90;99.90
19862;DHT22;10093;48.148;8.542;2022-10-14T07:44:00;14.10;99.90
19862;DHT22;10093;48.148;8.542;2022-10-14T07:46:28;14.20;99.90
19862;DHT22;10093;48.148;8.542;2022-10-14T07:49:04;14.10;99.90
19862;DHT22;10093;48.148;8.542;2022-10-14T07:51:31;14.20;99.90
19862;DHT22;10093;48.148;8.542;2022-10-14T07:53:58;14.20;99.90
19862;DHT22;10093;48.148;8.542;2022-10-14T07:56:24;14.20;99.90
19862;DHT22;10093;48.148;8.542;2022-10-14T07:58:50;14.20;99.90
19862;DHT22;10093;48.148;8.542;2022-10-14T08:01:17;14.20;99.90
19862;DHT22;10093;48.148;8.542;2022-10-14T08:03:44;14.10;99.90
19862;DHT22;10093;48.148;8.542;2022-10-14T08:06:10;14.20;99.90
19862;DHT22;10093;48.148;8.542;2022-10-14T08:08:36;13.90;99.90
19862;DHT22;10093;48.148;8.542;2022-10-14T08:11:12;14.00;99.90
19862;DHT22;10093;48.148;8.542;2022-10-14T08:13:39;13.90;99.90
19862;DHT22;10093;48.148;8.542;2022-10-14T08:16:22;14.00;99.90
19862;DHT22;10093;48.148;8.542;2022-10-14T08:18:49;13.90;99.90
19862;DHT22;10093;48.148;8.542;2022-10-14T08:21:16;14.00;99.90
19862;DHT22;10093;48.148;8.542;2022-10-14T08:23:42;14.00;99.90
19862;DHT22;10093;48.148;8.542;2022-10-14T08:28:48;14.00;99.90
19862;DHT22;10093;48.148;8.542;2022-10-14T08:31:14;14.10;99.90
19862;DHT22;10093;48.148;8.542;2022-10-14T08:33:39;14.10;99.90
19862;DHT22;10093;48.148;8.542;2022-10-14T08:36:05;14.10;99.90
19862;DHT22;10093;48.148;8.542;2022-10-14T08:38:31;14.00;99.90
19862;DHT22;10093;48.148;8.542;2022-10-14T08:43:48;14.10;99.90
19862;DHT22;10093;48.148;8.542;2022-10-14T08:46:27;14.20;99.90
19862;DHT22;10093;48.148;8.542;2022-10-14T08:49:03;14.20;99.90
19862;DHT22;10093;48.148;8.542;2022-10-14T08:51:31;14.10;99.90
19862;DHT22;10093;48.148;8.542;2022-10-14T08:54:11;14.10;99.90
19862;DHT22;10093;48.148;8.542;2022-10-14T08:56:40;14.00;99.90
19862;DHT22;10093;48.148;8.542;2022-10-14T08:59:13;13.90;99.90
19862;DHT22;10093;48.148;8.542;2022-10-14T09:02:01;14.10;99.90
19862;DHT22;10093;48.148;8.542;2022-10-14T09:04:29;14.20;99.90
19862;DHT22;10093;48.148;8.542;2022-10-14T09:06:58;14.30;99.90
19862;DHT22;10093;48.148;8.542;2022-10-14T09:09:31;14.30;99.90
19862;DHT22;10093;48.148;8.542;2022-10-14T09:12:04;14.30;99.90
19862;DHT22;10093;48.148;8.542;2022-10-14T09:14:33;14.10;99.90
19862;DHT22;10093;48.148;8.542;2022-10-14T09:22:41;14.00;99.90
19862;DHT22;10093;48.148;8.542;2022-10-14T09:25:14;14.30;99.90
19862;DHT22;10093;48.148;8.542;2022-10-14T09:27:41;14.30;99.90
19862;DHT22;10093;48.148;8.542;2022-10-14T09:30:17;14.40;99.90
19862;DHT22;10093;48.148;8.542;2022-10-14T09:32:48;14.60;99.90
19862;DHT22;10093;48.148;8.542;2022-10-14T09:35:28;14.60;99.90
19862;DHT22;10093;48.148;8.542;2022-10-14T09:37:55;14.40;99.90
19862;DHT22;10093;48.148;8.542;2022-10-14T09:40:44;14.20;99.90
19862;DHT22;10093;48.148;8.542;2022-10-14T09:43:17;14.20;99.90
19862;DHT22;10093;48.148;8.542;2022-10-14T09:45:49;14.30;99.90
19862;DHT22;10093;48.148;8.542;2022-10-14T09:50:54;14.40;99.90
19862;DHT22;10093;48.148;8.542;2022-10-14T09:53:30;14.50;99.90
19862;DHT22;10093;48.148;8.542;2022-10-14T09:56:02;14.60;99.90
19862;DHT22;10093;48.148;8.542;2022-10-14T09:58:42;14.80;99.90
19862;DHT22;10093;48.148;8.542;2022-10-14T10:01:38;14.60;99.90
19862;DHT22;10093;48.148;8.542;2022-10-14T10:06:57;14.40;99.90
19862;DHT22;10093;48.148;8.542;2022-10-14T10:09:24;14.60;99.90
19862;DHT22;10093;48.148;8.542;2022-10-14T10:11:50;14.40;99.90
19862;DHT22;10093;48.148;8.542;2022-10-14T10:14:16;14.70;99.90
19862;DHT22;10093;48.148;8.542;2022-10-14T10:16:46;14.70;99.90
19862;DHT22;10093;48.148;8.542;2022-10-14T10:21:51;14.80;99.90
19862;DHT22;10093;48.148;8.542;2022-10-14T10:24:21;14.60;99.90
19862;DHT22;10093;48.148;8.542;2022-10-14T10:26:48;14.50;99.90
19862;DHT22;10093;48.148;8.542;2022-10-14T10:29:26;14.60;99.90
19862;DHT22;10093;48.148;8.542;2022-10-14T10:32:13;14.70;99.90
19862;DHT22;10093;48.148;8.542;2022-10-14T10:34:56;14.90;99.90
19862;DHT22;10093;48.148;8.542;2022-10-14T10:47:58;16.20;99.90
19862;DHT22;10093;48.148;8.542;2022-10-14T11:04:27;15.00;99.90
19862;DHT22;10093;48.148;8.542;2022-10-14T11:13:21;15.20;99.90
19862;DHT22;10093;48.148;8.542;2022-10-14T11:16:09;15.20;99.90
19862;DHT22;10093;48.148;8.542;2022-10-14T11:21:33;15.50;99.90
19862;DHT22;10093;48.148;8.542;2022-10-14T11:24:05;15.50;99.90
19862;DHT22;10093;48.148;8.542;2022-10-14T11:35:02;15.40;99.90
19862;DHT22;10093;48.148;8.542;2022-10-14T11:40:52;15.40;99.90
19862;DHT22;10093;48.148;8.542;2022-10-14T11:43:29;15.40;99.90
19862;DHT22;10093;48.148;8.542;2022-10-14T11:46:03;15.40;99.90
19862;DHT22;10093;48.148;8.542;2022-10-14T11:48:50;15.20;99.90
19862;DHT22;10093;48.148;8.542;2022-10-14T12:01:49;16.30;99.90
19862;DHT22;10093;48.148;8.542;2022-10-14T12:04:35;16.30;99.90
19862;DHT22;10093;48.148;8.542;2022-10-14T12:07:07;16.20;99.90
19862;DHT22;10093;48.148;8.542;2022-10-14T12:09:36;16.20;99.90
19862;DHT22;10093;48.148;8.542;2022-10-14T12:12:11;15.40;99.90
19862;DHT22;10093;48.148;8.542;2022-10-14T12:14:46;15.20;99.90
19862;DHT22;10093;48.148;8.542;2022-10-14T12:17:38;15.20;99.90
19862;DHT22;10093;48.148;8.542;2022-10-14T12:20:21;15.20;99.90
19862;DHT22;10093;48.148;8.542;2022-10-14T12:22:51;14.90;99.90
19862;DHT22;10093;48.148;8.542;2022-10-14T12:25:20;14.80;99.90
19862;DHT22;10093;48.148;8.542;2022-10-14T12:27:48;15.10;99.90
19862;DHT22;10093;48.148;8.542;2022-10-14T12:30:33;15.40;99.90
19862;DHT22;10093;48.148;8.542;2022-10-14T12:33:02;15.60;99.90
19862;DHT22;10093;48.148;8.542;2022-10-14T12:35:51;16.00;99.90
19862;DHT22;10093;48.148;8.542;2022-10-14T12:38:18;16.00;99.90
19862;DHT22;10093;48.148;8.542;2022-10-14T12:40:44;16.10;99.90
19862;DHT22;10093;48.148;8.542;2022-10-14T12:43:19;15.90;99.90
19862;DHT22;10093;48.148;8.542;2022-10-14T12:45:53;15.60;99.90
19862;DHT22;10093;48.148;8.542;2022-10-14T12:48:23;15.10;99.90
19862;DHT22;10093;48.148;8.542;2022-10-14T12:51:08;14.70;99.90
19862;DHT22;10093;48.148;8.542;2022-10-14T12:53:34;14.40;99.90
19862;DHT22;10093;48.148;8.542;2022-10-14T12:56:02;14.40;99.90
19862;DHT22;10093;48.148;8.542;2022-10-14T12:58:55;14.30;99.90
19862;DHT22;10093;48.148;8.542;2022-10-14T13:01:22;14.40;99.90
19862;DHT22;10093;48.148;8.542;2022-10-14T13:03:56;14.40;99.90
19862;DHT22;10093;48.148;8.542;2022-10-14T13:11:36;14.90;99.90
19862;DHT22;10093;48.148;8.542;2022-10-14T13:14:22;15.00;99.90
19862;DHT22;10093;48.148;8.542;2022-10-14T13:22:00;15.00;99.90
19862;DHT22;10093;48.148;8.542;2022-10-14T13:24:28;15.00;99.90
19862;DHT22;10093;48.148;8.542;2022-10-14T13:37:42;15.30;99.90
19862;DHT22;10093;48.148;8.542;2022-10-14T13:42:41;15.40;99.90
19862;DHT22;10093;48.148;8.542;2022-10-14T13:45:11;15.50;99.90
19862;DHT22;10093;48.148;8.542;2022-10-14T13:47:45;15.50;99.90
19862;DHT22;10093;48.148;8.542;2022-10-14T13:50:22;15.30;99.90
19862;DHT22;10093;48.148;8.542;2022-10-14T13:53:14;15.20;99.90
19862;DHT22;10093;48.148;8.542;2022-10-14T13:55:49;15.20;99.90
19862;DHT22;10093;48.148;8.542;2022-10-14T13:58:22;15.30;99.90
19862;DHT22;10093;48.148;8.542;2022-10-14T14:03:29;15.30;99.90
19862;DHT22;10093;48.148;8.542;2022-10-14T14:05:56;15.20;99.90
19862;DHT22;10093;48.148;8.542;2022-10-14T14:08:25;15.20;99.90
19862;DHT22;10093;48.148;8.542;2022-10-14T14:10:58;15.10;99.90
19862;DHT22;10093;48.148;8.542;2022-10-14T14:13:26;15.10;99.90
19862;DHT22;10093;48.148;8.542;2022-10-14T14:15:53;15.10;99.90
19862;DHT22;10093;48.148;8.542;2022-10-14T14:18:32;14.90;99.90
19862;DHT22;10093;48.148;8.542;2022-10-14T14:20:58;14.80;99.90
19862;DHT22;10093;48.148;8.542;2022-10-14T14:23:27;14.80;99.90
19862;DHT22;10093;48.148;8.542;2022-10-14T14:25:53;14.40;99.90
19862;DHT22;10093;48.148;8.542;2022-10-14T14:28:19;14.10;99.90
19862;DHT22;10093;48.148;8.542;2022-10-14T14:30:51;13.90;99.90
19862;DHT22;10093;48.148;8.542;2022-10-14T14:33:28;13.80;99.90
19862;DHT22;10093;48.148;8.542;2022-10-14T14:35:57;13.80;99.90
19862;DHT22;10093;48.148;8.542;2022-10-14T14:40:59;13.80;99.90
19862;DHT22;10093;48.148;8.542;2022-10-14T14:43:26;13.70;99.90
19862;DHT22;10093;48.148;8.542;2022-10-14T14:45:52;13.80;99.90
19862;DHT22;10093;48.148;8.542;2022-10-14T14:48:18;13.70;99.90
19862;DHT22;10093;48.148;8.542;2022-10-14T14:50:45;13.70;99.90
19862;DHT22;10093;48.148;8.542;2022-10-14T14:53:15;13.80;99.90
19862;DHT22;10093;48.148;8.542;2022-10-14T14:56:06;13.80;99.90
19862;DHT22;10093;48.148;8.542;2022-10-14T15:01:20;13.80;99.90
19862;DHT22;10093;48.148;8.542;2022-10-14T15:03:56;13.90;99.90
19862;DHT22;10093;48.148;8.542;2022-10-14T15:06:23;13.80;99.90
19862;DHT22;10093;48.148;8.542;2022-10-14T15:08:50;13.70;99.90
19862;DHT22;10093;48.148;8.542;2022-10-14T15:11:17;13.60;99.90
19862;DHT22;10093;48.148;8.542;2022-10-14T15:14:02;13.60;99.90
19862;DHT22;10093;48.148;8.542;2022-10-14T15:16:38;13.60;99.90
19862;DHT22;10093;48.148;8.542;2022-10-14T15:21:45;13.70;99.90
19862;DHT22;10093;48.148;8.542;2022-10-14T15:24:16;13.80;99.90
19862;DHT22;10093;48.148;8.542;2022-10-14T15:26:42;13.60;99.90
19862;DHT22;10093;48.148;8.542;2022-10-14T15:29:13;13.60;99.90
19862;DHT22;10093;48.148;8.542;2022-10-14T15:31:41;13.50;99.90
19862;DHT22;10093;48.148;8.542;2022-10-14T15:34:16;13.60;99.90
19862;DHT22;10093;48.148;8.542;2022-10-14T15:36:42;13.70;99.90
19862;DHT22;10093;48.148;8.542;2022-10-14T15:39:11;13.60;99.90
19862;DHT22;10093;48.148;8.542;2022-10-14T15:41:38;13.60;99.90
19862;DHT22;10093;48.148;8.542;2022-10-14T15:44:04;13.50;99.90
19862;DHT22;10093;48.148;8.542;2022-10-14T15:46:29;13.40;99.90
19862;DHT22;10093;48.148;8.542;2022-10-14T15:49:16;13.50;99.90
19862;DHT22;10093;48.148;8.542;2022-10-14T15:51:44;13.50;99.90
19862;DHT22;10093;48.148;8.542;2022-10-14T15:54:11;13.30;99.90
19862;DHT22;10093;48.148;8.542;2022-10-14T15:56:37;13.20;99.90
19862;DHT22;10093;48.148;8.542;2022-10-14T15:59:04;13.30;99.90
19862;DHT22;10093;48.148;8.542;2022-10-14T16:01:32;13.10;99.90
19862;DHT22;10093;48.148;8.542;2022-10-14T16:03:59;13.10;99.90
19862;DHT22;10093;48.148;8.542;2022-10-14T16:06:25;12.80;99.90
19862;DHT22;10093;48.148;8.542;2022-10-14T16:08:53;12.80;99.90
19862;DHT22;10093;48.148;8.542;2022-10-14T16:11:26;12.90;99.90
19862;DHT22;10093;48.148;8.542;2022-10-14T16:13:52;12.90;99.90
19862;DHT22;10093;48.148;8.542;2022-10-14T16:16:25;12.70;99.90
19862;DHT22;10093;48.148;8.542;2022-10-14T16:18:53;12.50;99.90
19862;DHT22;10093;48.148;8.542;2022-10-14T16:21:18;12.40;99.90
19862;DHT22;10093;48.148;8.542;2022-10-14T16:23:44;12.40;99.90
19862;DHT22;10093;48.148;8.542;2022-10-14T16:26:10;12.30;99.90
19862;DHT22;10093;48.148;8.542;2022-10-14T16:28:37;12.30;99.90
19862;DHT22;10093;48.148;8.542;2022-10-14T16:31:04;12.40;99.90
19862;DHT22;10093;48.148;8.542;2022-10-14T16:33:30;12.20;99.90
19862;DHT22;10093;48.148;8.542;2022-10-14T16:35:57;12.10;99.90
19862;DHT22;10093;48.148;8.542;2022-10-14T16:38:24;12.00;99.90
19862;DHT22;10093;48.148;8.542;2022-10-14T16:41:01;12.00;99.90
19862;DHT22;10093;48.148;8.542;2022-10-14T16:43:28;12.00;99.90
19862;DHT22;10093;48.148;8.542;2022-10-14T16:45:58;11.90;99.90
19862;DHT22;10093;48.148;8.542;2022-10-14T16:48:24;11.90;99.90
19862;DHT22;10093;48.148;8.542;2022-10-14T16:50:52;11.90;99.90
19862;DHT22;10093;48.148;8.542;2022-10-14T16:53:18;11.90;99.90
19862;DHT22;10093;48.148;8.542;2022-10-14T16:56:03;11.80;99.90
19862;DHT22;10093;48.148;8.542;2022-10-14T16:58:49;11.90;99.90
19862;DHT22;10093;48.148;8.542;2022-10-14T17:01:14;11.90;99.90
19862;DHT22;10093;48.148;8.542;2022-10-14T17:03:40;11.80;99.90
19862;DHT22;10093;48.148;8.542;2022-10-14T17:06:06;11.80;99.90
19862;DHT22;10093;48.148;8.542;2022-10-14T17:08:32;11.80;99.90
19862;DHT22;10093;48.148;8.542;2022-10-14T17:10:57;11.70;99.90
19862;DHT22;10093;48.148;8.542;2022-10-14T17:13:23;11.70;99.90
19862;DHT22;10093;48.148;8.542;2022-10-14T17:15:49;11.60;99.90
19862;DHT22;10093;48.148;8.542;2022-10-14T17:18:16;11.60;99.90
19862;DHT22;10093;48.148;8.542;2022-10-14T17:20:42;11.60;99.90
19862;DHT22;10093;48.148;8.542;2022-10-14T17:23:08;11.60;99.90
19862;DHT22;10093;48.148;8.542;2022-10-14T17:25:33;11.60;99.90
19862;DHT22;10093;48.148;8.542;2022-10-14T17:28:00;11.60;99.90
19862;DHT22;10093;48.148;8.542;2022-10-14T17:30:26;11.70;99.90
19862;DHT22;10093;48.148;8.542;2022-10-14T17:32:52;11.80;99.90
19862;DHT22;10093;48.148;8.542;2022-10-14T17:35:17;11.90;99.90
19862;DHT22;10093;48.148;8.542;2022-10-14T17:37:43;12.00;99.90
19862;DHT22;10093;48.148;8.542;2022-10-14T17:40:09;12.00;99.90
19862;DHT22;10093;48.148;8.542;2022-10-14T17:42:35;12.10;99.90
19862;DHT22;10093;48.148;8.542;2022-10-14T17:45:03;12.10;99.90
19862;DHT22;10093;48.148;8.542;2022-10-14T17:47:29;12.10;99.90